Time;durP1;ratioP1;P1;durP2;ratioP2;P2;SDS_P1;SDS_P2;PMS_P1;PMS_P2;Temp;Humidity;BMP_temperature;BMP_pressure;BME280_temperature;BME280_humidity;BME280_pressure;Samples;Min_cycle;Max_cycle;Signal;HPM_P1;HPM_P2
2022/07/22 00:01:26;;;;;;;6.15;2.40;;;26.60;50.40;;;;;;5101419;28;20886;-75
2022/07/22 00:03:54;;;;;;;6.93;2.22;;;26.50;50.40;;;;;;5096126;27;20193;-75
2022/07/22 00:06:24;;;;;;;4.35;2.38;;;26.50;50.40;;;;;;5092674;28;21356;-75
2022/07/22 00:08:53;;;;;;;3.63;2.05;;;26.40;50.30;;;;;;5090156;28;20198;-76
2022/07/22 00:11:22;;;;;;;7.65;2.45;;;26.40;50.30;;;;;;5096085;28;20189;-77
2022/07/22 00:13:50;;;;;;;5.95;2.13;;;26.40;50.50;;;;;;5093242;27;20212;-76
2022/07/22 00:16:19;;;;;;;6.55;2.28;;;26.40;50.40;;;;;;5090873;27;20233;-75
2022/07/22 00:18:48;;;;;;;9.65;2.42;;;26.30;51.00;;;;;;5103664;28;20601;-76
2022/07/22 00:21:16;;;;;;;6.18;2.00;;;26.20;50.30;;;;;;5095275;27;20284;-75
2022/07/22 00:23:46;;;;;;;4.70;2.17;;;26.20;50.30;;;;;;5096293;27;20193;-74
2022/07/22 00:26:14;;;;;;;7.28;1.80;;;26.20;50.30;;;;;;5099498;27;20193;-76
2022/07/22 00:28:43;;;;;;;3.38;1.83;;;26.10;50.30;;;;;;5089703;27;20189;-75
2022/07/22 00:31:11;;;;;;;6.75;2.10;;;26.10;50.30;;;;;;5090789;27;20304;-75
2022/07/22 00:33:39;;;;;;;6.95;1.90;;;26.10;50.40;;;;;;5096166;27;20705;-75
2022/07/22 00:36:08;;;;;;;4.85;2.38;;;26.10;50.50;;;;;;5099379;28;20190;-76
2022/07/22 00:38:37;;;;;;;5.68;1.77;;;26.10;51.10;;;;;;5098747;28;20207;-76
2022/07/22 00:41:07;;;;;;;4.55;2.65;;;26.00;50.50;;;;;;5096662;27;20201;-76
2022/07/22 00:44:03;;;;;;;4.82;2.15;;;26.00;50.60;;;;;;5095166;27;20958;-76
2022/07/22 00:46:35;;;;;;;9.15;2.00;;;26.00;50.80;;;;;;5047846;27;20869;-76
2022/07/22 00:49:05;;;;;;;4.13;1.95;;;25.90;50.80;;;;;;5094425;27;20278;-76
2022/07/22 00:51:34;;;;;;;3.30;1.88;;;25.90;51.00;;;;;;5097137;28;20200;-76
2022/07/22 00:54:03;;;;;;;4.18;1.80;;;25.90;51.20;;;;;;5093369;27;20293;-76
2022/07/22 00:56:33;;;;;;;6.47;2.05;;;25.80;51.20;;;;;;5104725;27;20185;-77
2022/07/22 00:59:05;;;;;;;7.28;2.42;;;25.80;51.30;;;;;;5092011;27;20186;-76
2022/07/22 01:01:33;;;;;;;4.95;1.75;;;25.80;51.40;;;;;;5098199;27;20193;-77
2022/07/22 01:04:03;;;;;;;3.72;1.85;;;25.70;51.30;;;;;;5096498;28;20284;-76
2022/07/22 01:06:32;;;;;;;11.63;3.25;;;25.70;51.30;;;;;;5098018;28;20196;-78
2022/07/22 01:09:00;;;;;;;5.10;2.50;;;25.70;51.30;;;;;;5093197;28;20189;-76
2022/07/22 01:11:29;;;;;;;5.38;2.70;;;25.70;51.40;;;;;;5090982;27;20193;-75
2022/07/22 01:13:59;;;;;;;7.72;2.55;;;25.60;51.50;;;;;;5098183;27;20894;-76
2022/07/22 01:16:27;;;;;;;10.55;3.28;;;25.60;51.70;;;;;;5095850;27;20892;-76
2022/07/22 01:18:56;;;;;;;8.70;3.35;;;25.60;51.80;;;;;;5083289;27;20217;-75
2022/07/22 01:21:26;;;;;;;6.47;2.42;;;25.60;51.90;;;;;;5091888;28;20264;-75
2022/07/22 01:23:55;;;;;;;8.65;2.92;;;25.60;52.00;;;;;;5090673;28;20193;-76
2022/07/22 01:26:23;;;;;;;5.57;2.70;;;25.50;52.10;;;;;;5090208;28;20709;-75
2022/07/22 01:28:51;;;;;;;5.07;2.33;;;25.50;52.10;;;;;;5098571;28;20193;-75
2022/07/22 01:31:20;;;;;;;6.95;2.70;;;25.50;52.30;;;;;;5091741;28;20430;-75
2022/07/22 01:33:49;;;;;;;6.85;2.83;;;25.50;52.90;;;;;;5100437;28;20193;-75
2022/07/22 01:36:18;;;;;;;9.82;2.83;;;25.40;52.80;;;;;;5090643;28;20213;-75
2022/07/22 01:38:48;;;;;;;5.53;2.22;;;25.40;53.10;;;;;;5092404;27;20704;-75
2022/07/22 01:41:16;;;;;;;7.32;2.50;;;25.30;53.20;;;;;;5098052;27;20193;-75
2022/07/22 01:43:44;;;;;;;5.60;2.83;;;25.30;53.40;;;;;;5092346;28;20213;-76
2022/07/22 01:46:13;;;;;;;5.28;1.95;;;25.30;53.40;;;;;;5091013;27;20210;-74
2022/07/22 01:48:42;;;;;;;13.07;2.70;;;25.20;53.50;;;;;;5104261;27;20196;-77
2022/07/22 01:51:10;;;;;;;6.25;2.70;;;25.20;53.40;;;;;;5101393;27;20185;-76
2022/07/22 01:53:39;;;;;;;4.00;2.20;;;25.20;53.50;;;;;;5097587;27;21038;-76
2022/07/22 01:56:09;;;;;;;5.85;2.00;;;25.20;53.40;;;;;;5090370;27;20236;-75
2022/07/22 01:58:37;;;;;;;4.60;2.17;;;25.10;53.40;;;;;;5097955;28;20189;-75
2022/07/22 02:01:08;;;;;;;4.53;2.15;;;25.10;53.50;;;;;;5097892;27;20229;-75
2022/07/22 02:03:36;;;;;;;5.30;2.10;;;25.10;53.50;;;;;;5085953;27;20804;-75
2022/07/22 02:06:05;;;;;;;3.90;2.10;;;25.00;53.60;;;;;;5084833;27;20268;-77
2022/07/22 02:08:34;;;;;;;4.72;2.60;;;25.10;53.60;;;;;;5087953;27;20286;-75
2022/07/22 02:11:02;;;;;;;4.18;2.08;;;25.00;53.70;;;;;;5094099;27;20201;-75
2022/07/22 02:13:32;;;;;;;7.47;2.65;;;25.00;53.70;;;;;;5093145;28;20182;-75
2022/07/22 02:16:02;;;;;;;4.45;2.00;;;25.00;53.90;;;;;;5089388;27;20216;-76
2022/07/22 02:18:30;;;;;;;4.38;1.98;;;25.00;54.20;;;;;;5099023;27;20193;-75
2022/07/22 02:20:59;;;;;;;4.10;2.15;;;25.00;54.20;;;;;;5087849;28;20200;-76
2022/07/22 02:23:27;;;;;;;5.57;2.00;;;24.90;54.20;;;;;;5082762;27;20196;-76
2022/07/22 02:25:56;;;;;;;5.47;1.88;;;24.90;54.20;;;;;;5093805;28;20197;-76
2022/07/22 02:28:24;;;;;;;4.85;1.83;;;24.90;54.20;;;;;;5095286;28;20201;-75
2022/07/22 02:30:54;;;;;;;5.63;2.00;;;24.90;54.20;;;;;;5092642;28;20199;-76
2022/07/22 02:33:22;;;;;;;3.88;2.13;;;24.90;54.20;;;;;;5091926;27;20197;-76
2022/07/22 02:35:51;;;;;;;7.13;2.10;;;24.90;54.20;;;;;;5090563;27;20590;-75
2022/07/22 02:38:19;;;;;;;6.18;1.77;;;24.90;54.20;;;;;;5099627;27;20823;-75
2022/07/22 02:40:48;;;;;;;4.82;1.70;;;24.90;54.10;;;;;;5093561;28;20701;-76
2022/07/22 02:43:16;;;;;;;8.70;1.95;;;24.90;54.10;;;;;;5088838;28;20205;-75
2022/07/22 02:45:45;;;;;;;4.97;2.25;;;24.80;54.00;;;;;;5091271;28;20190;-76
2022/07/22 02:48:15;;;;;;;4.00;1.65;;;24.80;54.00;;;;;;5096553;27;20203;-76
2022/07/22 02:50:46;;;;;;;5.90;1.98;;;24.80;54.00;;;;;;5091885;28;20197;-77
2022/07/22 02:53:15;;;;;;;8.07;2.08;;;24.80;54.10;;;;;;5093841;28;20189;-76
2022/07/22 02:55:44;;;;;;;2.97;2.00;;;24.80;54.20;;;;;;5089344;28;20222;-77
2022/07/22 02:58:12;;;;;;;4.05;2.22;;;24.80;54.30;;;;;;5091516;27;20193;-76
2022/07/22 03:00:40;;;;;;;8.38;2.28;;;24.80;54.40;;;;;;5097407;28;20546;-77
2022/07/22 03:03:09;;;;;;;3.85;2.15;;;24.80;54.50;;;;;;5092953;28;20221;-76
2022/07/22 03:05:39;;;;;;;8.73;1.90;;;24.80;54.60;;;;;;5078790;28;20207;-76
2022/07/22 03:08:07;;;;;;;5.07;2.13;;;24.70;54.70;;;;;;5096315;27;20194;-76
2022/07/22 03:10:35;;;;;;;4.13;1.92;;;24.70;54.70;;;;;;5104015;27;20707;-77
2022/07/22 03:13:04;;;;;;;10.60;2.35;;;24.70;54.70;;;;;;5094590;28;20189;-76
2022/07/22 03:15:32;;;;;;;4.60;2.25;;;24.70;54.70;;;;;;5093456;28;20221;-76
2022/07/22 03:18:01;;;;;;;9.60;2.00;;;24.70;54.80;;;;;;5092845;28;20204;-77
2022/07/22 03:20:29;;;;;;;8.23;2.17;;;24.70;55.00;;;;;;5093743;28;20697;-75
2022/07/22 03:22:59;;;;;;;9.13;2.30;;;24.70;55.10;;;;;;5080266;28;20257;-76
2022/07/22 03:25:28;;;;;;;6.03;1.85;;;24.80;55.20;;;;;;5095568;28;20192;-76
2022/07/22 03:27:56;;;;;;;13.88;2.08;;;24.70;55.20;;;;;;5095426;28;20192;-76
2022/07/22 03:30:25;;;;;;;8.75;2.50;;;24.70;55.30;;;;;;5095066;28;20665;-77
2022/07/22 03:32:53;;;;;;;3.25;1.77;;;24.70;55.40;;;;;;5094859;28;20193;-77
2022/07/22 03:35:22;;;;;;;6.95;2.80;;;24.70;55.40;;;;;;5091534;28;20213;-77
2022/07/22 03:37:50;;;;;;;6.25;2.10;;;24.80;55.50;;;;;;5093937;28;20306;-76
2022/07/22 03:40:20;;;;;;;5.82;1.80;;;24.70;55.30;;;;;;5091782;28;20197;-75
2022/07/22 03:42:49;;;;;;;9.18;1.90;;;24.80;55.40;;;;;;5093126;28;20189;-76
2022/07/22 03:45:17;;;;;;;5.35;2.10;;;24.80;55.50;;;;;;5097822;28;20217;-76
2022/07/22 03:47:45;;;;;;;8.43;2.00;;;24.80;55.60;;;;;;5079238;28;20197;-76
2022/07/22 03:50:14;;;;;;;4.85;2.00;;;24.80;55.70;;;;;;5085943;28;20197;-77
2022/07/22 03:52:42;;;;;;;5.68;2.10;;;24.80;56.30;;;;;;5097991;28;20189;-75
2022/07/22 03:55:11;;;;;;;9.23;2.42;;;24.80;55.30;;;;;;5104197;28;20197;-77
2022/07/22 03:57:41;;;;;;;8.60;1.73;;;24.80;55.40;;;;;;5092000;28;20875;-77
2022/07/22 04:00:10;;;;;;;6.05;1.77;;;24.80;55.30;;;;;;5058381;28;20208;-77
2022/07/22 04:02:38;;;;;;;6.15;2.05;;;24.80;55.30;;;;;;5099418;28;20201;-76
2022/07/22 04:05:07;;;;;;;9.65;2.30;;;24.90;55.20;;;;;;5096311;28;20221;-77
2022/07/22 04:07:36;;;;;;;7.35;1.88;;;24.90;55.10;;;;;;5091402;28;20185;-76
2022/07/22 04:10:07;;;;;;;6.57;1.65;;;24.90;54.80;;;;;;5088708;28;20796;-77
2022/07/22 04:12:37;;;;;;;15.52;3.13;;;24.90;54.70;;;;;;5091351;28;20194;-76
2022/07/22 04:15:09;;;;;;;6.85;2.25;;;24.90;54.50;;;;;;5093183;28;20193;-76
2022/07/22 04:17:37;;;;;;;8.73;2.03;;;24.90;54.40;;;;;;5099917;28;20304;-77
2022/07/22 04:20:07;;;;;;;6.25;1.90;;;24.90;54.20;;;;;;5091454;28;20204;-76
2022/07/22 04:22:35;;;;;;;8.73;1.98;;;25.00;54.20;;;;;;5086234;28;20221;-76
2022/07/22 04:25:05;;;;;;;6.40;2.03;;;25.00;54.20;;;;;;5096407;28;20200;-75
2022/07/22 04:27:33;;;;;;;10.93;2.30;;;25.00;54.20;;;;;;5090447;28;20194;-76
2022/07/22 04:30:01;;;;;;;6.53;2.20;;;25.00;54.20;;;;;;5094963;28;20363;-76
2022/07/22 04:32:31;;;;;;;9.63;2.20;;;25.00;54.10;;;;;;5101995;27;20186;-75
2022/07/22 04:35:00;;;;;;;6.70;1.58;;;25.00;54.10;;;;;;5099985;27;20190;-75
2022/07/22 04:37:28;;;;;;;7.20;2.13;;;25.10;54.10;;;;;;5101057;27;20221;-77
2022/07/22 04:39:56;;;;;;;8.82;2.00;;;25.10;53.80;;;;;;5099550;27;20566;-77
2022/07/22 04:42:25;;;;;;;6.72;1.70;;;25.10;53.70;;;;;;5091065;28;20246;-77
2022/07/22 04:44:53;;;;;;;5.68;1.85;;;25.20;53.60;;;;;;5094741;27;20190;-76
2022/07/22 04:47:22;;;;;;;5.25;1.50;;;25.20;53.60;;;;;;5106165;27;20205;-76
2022/07/22 04:49:52;;;;;;;6.97;1.73;;;25.20;53.50;;;;;;5085914;27;20293;-77
2022/07/22 04:52:21;;;;;;;8.15;1.70;;;25.30;53.50;;;;;;5089115;28;20681;-76
2022/07/22 04:54:50;;;;;;;5.03;1.65;;;25.30;53.30;;;;;;5099868;27;20273;-76
2022/07/22 04:57:18;;;;;;;4.20;1.75;;;25.40;53.30;;;;;;5099243;27;20213;-76
2022/07/22 04:59:47;;;;;;;6.35;1.38;;;25.40;53.20;;;;;;5105539;28;20212;-76
2022/07/22 05:02:15;;;;;;;2.70;1.33;;;25.40;53.10;;;;;;5104807;28;20193;-76
2022/07/22 05:04:44;;;;;;;8.98;1.50;;;25.50;53.00;;;;;;5101567;27;20186;-76
2022/07/22 05:07:14;;;;;;;8.90;1.92;;;25.50;53.00;;;;;;5097455;27;20280;-76
2022/07/22 05:09:42;;;;;;;5.97;1.60;;;25.60;52.90;;;;;;5099759;27;20197;-75
2022/07/22 05:12:10;;;;;;;4.43;1.77;;;25.60;52.90;;;;;;5103833;27;20866;-76
2022/07/22 05:14:39;;;;;;;4.93;1.45;;;25.70;52.80;;;;;;5099997;28;20270;-75
2022/07/22 05:17:10;;;;;;;7.88;1.73;;;25.80;52.90;;;;;;5096806;27;20217;-76
2022/07/22 05:19:43;;;;;;;7.30;1.30;;;25.80;52.80;;;;;;5095221;28;20193;-76
2022/07/22 05:22:13;;;;;;;6.78;1.58;;;25.90;52.70;;;;;;5097255;28;20220;-76
2022/07/22 05:24:41;;;;;;;2.97;1.38;;;26.00;52.40;;;;;;5109515;27;20200;-75
2022/07/22 05:27:10;;;;;;;5.85;0.90;;;26.10;51.90;;;;;;5107932;27;20235;-76
2022/07/22 05:29:38;;;;;;;5.82;1.27;;;26.20;51.10;;;;;;5098524;27;20197;-75
2022/07/22 05:32:06;;;;;;;5.43;1.45;;;26.30;51.00;;;;;;5098754;27;20602;-75
2022/07/22 05:34:35;;;;;;;2.78;1.00;;;26.40;51.10;;;;;;5098529;28;20189;-74
2022/07/22 05:37:03;;;;;;;5.95;0.93;;;26.50;50.30;;;;;;5114218;27;20227;-76
2022/07/22 05:39:33;;;;;;;2.63;0.90;;;26.60;50.20;;;;;;5106543;28;20197;-75
2022/07/22 05:42:02;;;;;;;7.90;1.23;;;26.70;50.20;;;;;;5108761;28;20220;-76
2022/07/22 05:44:30;;;;;;;5.45;1.38;;;26.80;50.20;;;;;;5097953;27;20181;-78
2022/07/22 05:46:58;;;;;;;4.80;0.90;;;26.90;49.70;;;;;;5107352;27;20185;-76
2022/07/22 05:49:27;;;;;;;2.78;1.00;;;27.00;49.80;;;;;;5115388;27;20255;-76
2022/07/22 05:51:57;;;;;;;1.58;0.98;;;27.10;49.40;;;;;;5110178;28;20223;-77
2022/07/22 05:54:26;;;;;;;2.05;0.95;;;27.20;49.00;;;;;;5108143;27;20187;-77
2022/07/22 05:56:56;;;;;;;5.07;1.25;;;27.20;47.60;;;;;;5107592;28;20229;-78
2022/07/22 05:59:25;;;;;;;11.23;1.20;;;27.40;48.20;;;;;;5101223;27;20200;-84
2022/07/22 06:01:53;;;;;;;5.00;1.00;;;27.50;48.30;;;;;;5104513;27;20188;-78
2022/07/22 06:04:22;;;;;;;2.60;1.00;;;27.60;48.30;;;;;;5115881;27;20257;-79
2022/07/22 06:06:51;;;;;;;2.28;0.80;;;27.70;48.20;;;;;;5103874;27;20189;-76
2022/07/22 06:09:20;;;;;;;3.83;1.52;;;27.80;48.10;;;;;;5106510;28;20190;-76
2022/07/22 06:11:48;;;;;;;4.60;0.90;;;27.90;47.80;;;;;;5108644;27;20564;-79
2022/07/22 06:14:20;;;;;;;3.72;1.00;;;28.00;47.70;;;;;;5098724;27;20216;-77
2022/07/22 06:16:50;;;;;;;5.22;0.82;;;28.10;47.50;;;;;;5108469;27;20185;-76
2022/07/22 06:19:19;;;;;;;7.70;0.93;;;28.20;47.50;;;;;;5110582;27;20193;-77
2022/07/22 06:21:47;;;;;;;6.85;0.80;;;28.30;47.10;;;;;;5105980;27;20223;-77
2022/07/22 06:24:15;;;;;;;2.20;0.85;;;28.40;46.70;;;;;;5109375;27;20609;-75
2022/07/22 06:26:44;;;;;;;5.20;0.85;;;28.40;46.00;;;;;;5099044;27;20193;-78
2022/07/22 06:29:12;;;;;;;2.88;0.77;;;28.50;45.80;;;;;;5105981;28;20185;-78
2022/07/22 06:31:42;;;;;;;1.55;0.82;;;28.60;46.00;;;;;;5111277;28;20193;-79
2022/07/22 06:34:11;;;;;;;2.42;1.05;;;28.70;46.00;;;;;;5109693;28;20571;-76
2022/07/22 06:36:39;;;;;;;2.72;0.70;;;28.80;45.50;;;;;;5105230;27;20845;-78
2022/07/22 06:39:08;;;;;;;1.70;0.90;;;28.80;44.30;;;;;;5109085;28;20216;-77
2022/07/22 06:41:36;;;;;;;5.07;0.90;;;28.90;44.60;;;;;;5110131;27;20197;-78
2022/07/22 06:44:05;;;;;;;1.42;0.70;;;29.00;44.90;;;;;;5106425;27;20203;-77
2022/07/22 06:46:33;;;;;;;2.35;0.82;;;29.10;44.40;;;;;;5116312;27;20684;-79
2022/07/22 06:49:04;;;;;;;2.38;0.98;;;29.20;44.70;;;;;;5103728;28;20262;-76
2022/07/22 06:51:32;;;;;;;3.80;0.80;;;29.20;44.90;;;;;;5109293;28;20203;-79
2022/07/22 06:54:01;;;;;;;3.08;0.85;;;29.30;44.40;;;;;;5105127;28;20189;-77
2022/07/22 06:56:29;;;;;;;2.38;1.15;;;29.30;44.30;;;;;;5111782;27;20195;-79
2022/07/22 06:58:58;;;;;;;5.28;1.10;;;29.40;43.70;;;;;;5113766;27;20220;-78
2022/07/22 07:01:27;;;;;;;1.17;0.70;;;29.40;44.20;;;;;;5107828;28;20204;-76
2022/07/22 07:03:55;;;;;;;4.10;1.17;;;29.50;44.40;;;;;;5110005;27;20210;-78
2022/07/22 07:06:25;;;;;;;3.30;0.93;;;29.60;44.30;;;;;;5105371;27;20197;-79
2022/07/22 07:08:54;;;;;;;2.30;0.80;;;29.60;43.90;;;;;;5103736;28;20216;-76
2022/07/22 07:11:23;;;;;;;3.60;0.80;;;29.70;44.00;;;;;;5102199;28;20653;-75
2022/07/22 07:13:51;;;;;;;1.95;0.95;;;29.80;44.10;;;;;;5110943;27;20188;-76
2022/07/22 07:16:19;;;;;;;5.68;0.80;;;29.80;44.00;;;;;;5105447;28;20200;-77
2022/07/22 07:18:48;;;;;;;2.78;0.98;;;29.80;43.90;;;;;;5104756;28;20216;-77
2022/07/22 07:21:16;;;;;;;7.00;1.10;;;29.90;43.80;;;;;;5103157;28;20233;-79
2022/07/22 07:23:48;;;;;;;1.77;0.73;;;29.90;43.70;;;;;;5113372;28;20189;-76
2022/07/22 07:26:16;;;;;;;1.58;0.95;;;30.00;43.20;;;;;;5101027;28;20197;-75
2022/07/22 07:28:44;;;;;;;3.20;0.75;;;30.00;43.20;;;;;;5113932;28;20223;-76
2022/07/22 07:31:13;;;;;;;2.28;0.98;;;30.10;43.50;;;;;;5104910;28;20193;-75
2022/07/22 07:33:41;;;;;;;2.72;1.00;;;30.10;43.40;;;;;;5105084;28;20250;-75
2022/07/22 07:36:10;;;;;;;4.28;1.10;;;30.10;42.50;;;;;;5095891;28;20636;-76
2022/07/22 07:38:38;;;;;;;6.32;0.85;;;30.20;42.60;;;;;;5089971;28;20224;-76
2022/07/22 07:41:08;;;;;;;2.40;0.73;;;30.30;43.10;;;;;;5100651;28;20197;-76
2022/07/22 07:43:37;;;;;;;4.40;0.80;;;30.30;42.30;;;;;;5097463;28;20193;-76
2022/07/22 07:46:06;;;;;;;3.53;0.70;;;30.30;42.30;;;;;;5091382;28;20197;-76
2022/07/22 07:48:34;;;;;;;4.15;0.90;;;30.30;42.00;;;;;;5092081;28;20236;-76
2022/07/22 07:51:03;;;;;;;2.35;0.80;;;30.40;42.40;;;;;;5087877;28;20209;-77
2022/07/22 07:53:31;;;;;;;1.23;0.82;;;30.40;42.70;;;;;;5094698;28;20196;-76
2022/07/22 07:56:00;;;;;;;2.60;1.00;;;30.50;42.70;;;;;;5096213;28;20280;-76
2022/07/22 07:58:31;;;;;;;3.03;0.90;;;30.50;42.80;;;;;;5109170;28;20264;-75
2022/07/22 08:01:06;;;;;;;1.40;0.90;;;30.60;42.70;;;;;;5093969;28;20196;-75
2022/07/22 08:03:36;;;;;;;1.30;0.90;;;30.70;42.50;;;;;;5093607;27;20189;-75
2022/07/22 08:06:05;;;;;;;1.85;1.02;;;30.70;42.50;;;;;;5101218;27;20300;-74
2022/07/22 08:08:33;;;;;;;2.83;0.90;;;30.70;42.60;;;;;;5101533;27;20189;-76
2022/07/22 08:11:04;;;;;;;1.50;0.90;;;30.80;42.60;;;;;;5101490;27;20693;-75
2022/07/22 08:13:34;;;;;;;1.60;0.85;;;30.80;42.70;;;;;;5096555;28;20645;-77
2022/07/22 08:16:03;;;;;;;2.28;1.00;;;30.80;42.60;;;;;;5101257;28;20233;-75
2022/07/22 08:18:36;;;;;;;1.73;0.80;;;30.90;42.80;;;;;;5096651;27;20723;-76
2022/07/22 08:21:05;;;;;;;2.72;1.20;;;30.90;42.70;;;;;;5095866;27;20181;-78
2022/07/22 08:23:33;;;;;;;6.78;1.17;;;30.90;42.60;;;;;;5095266;27;20838;-78
2022/07/22 08:26:02;;;;;;;2.88;1.00;;;31.00;42.70;;;;;;5096603;28;20185;-75
2022/07/22 08:28:30;;;;;;;1.95;0.90;;;31.00;42.40;;;;;;5094365;27;20216;-76
2022/07/22 08:31:00;;;;;;;2.42;1.00;;;31.10;42.30;;;;;;5104126;28;20186;-76
2022/07/22 08:33:33;;;;;;;1.13;0.80;;;31.10;42.10;;;;;;5098008;27;20193;-76
2022/07/22 08:36:01;;;;;;;2.55;1.05;;;31.20;42.10;;;;;;5101541;27;20193;-75
2022/07/22 08:38:30;;;;;;;3.88;0.90;;;31.20;41.80;;;;;;5104687;27;20711;-76
2022/07/22 08:41:00;;;;;;;1.05;0.80;;;31.20;42.00;;;;;;5101581;27;20188;-76
2022/07/22 08:43:31;;;;;;;1.75;1.02;;;31.30;41.90;;;;;;5101966;27;20185;-76
2022/07/22 08:46:02;;;;;;;3.45;1.00;;;31.30;42.10;;;;;;5105666;27;20194;-75
2022/07/22 08:48:31;;;;;;;1.17;0.63;;;31.40;42.10;;;;;;5099011;28;20193;-75
2022/07/22 08:51:00;;;;;;;4.32;0.93;;;31.40;41.50;;;;;;5103774;27;20191;-76
2022/07/22 08:53:28;;;;;;;2.17;1.00;;;31.40;41.60;;;;;;5097860;28;20193;-76
2022/07/22 08:55:58;;;;;;;3.47;1.05;;;31.40;41.40;;;;;;5092093;27;20189;-75
2022/07/22 08:58:27;;;;;;;2.55;0.93;;;31.40;41.20;;;;;;5097694;28;20288;-76
2022/07/22 09:01:11;;;;;;;2.08;1.10;;;31.40;40.90;;;;;;5101187;28;20639;-76
2022/07/22 09:03:49;;;;;;;1.88;0.90;;;31.50;41.10;;;;;;5101576;27;20193;-75
2022/07/22 09:06:18;;;;;;;1.23;0.82;;;31.50;41.30;;;;;;5092512;28;20267;-76
2022/07/22 09:08:57;;;;;;;4.15;1.02;;;31.50;41.30;;;;;;5100067;28;20189;-76
2022/07/22 09:11:28;;;;;;;3.60;1.10;;;31.50;41.10;;;;;;5096559;28;20189;-76
2022/07/22 09:13:58;;;;;;;1.30;0.82;;;31.60;41.00;;;;;;5087733;27;20202;-75
2022/07/22 09:16:42;;;;;;;3.28;0.95;;;31.60;40.50;;;;;;5092606;27;20725;-75
2022/07/22 09:19:11;;;;;;;6.05;1.50;;;31.60;40.70;;;;;;5099892;28;20930;-75
2022/07/22 09:21:42;;;;;;;2.42;1.13;;;31.60;41.00;;;;;;5099256;28;20225;-75
2022/07/22 09:24:25;;;;;;;2.88;1.00;;;31.70;41.40;;;;;;5097117;27;20553;-75
2022/07/22 09:26:56;;;;;;;1.45;0.98;;;31.80;41.50;;;;;;5091134;27;20182;-76
2022/07/22 09:29:25;;;;;;;3.83;1.35;;;31.80;41.40;;;;;;5096420;27;20215;-77
2022/07/22 09:32:07;;;;;;;1.52;0.80;;;31.80;41.30;;;;;;5098584;28;20182;-74
2022/07/22 09:34:38;;;;;;;6.97;1.25;;;31.90;41.00;;;;;;5095695;27;20182;-76
2022/07/22 09:37:06;;;;;;;2.47;1.00;;;32.00;41.10;;;;;;5096748;28;20197;-77
2022/07/22 09:39:35;;;;;;;7.05;1.10;;;32.00;41.10;;;;;;5098875;27;20761;-76
2022/07/22 09:42:05;;;;;;;8.70;1.33;;;32.00;41.00;;;;;;5091366;28;20190;-77
2022/07/22 09:44:34;;;;;;;2.58;1.17;;;32.10;40.70;;;;;;5101133;27;20208;-77
2022/07/22 09:47:02;;;;;;;3.75;0.98;;;32.10;40.60;;;;;;5098075;28;20204;-76
2022/07/22 09:49:34;;;;;;;3.60;1.17;;;32.20;40.50;;;;;;5103339;28;20650;-75
2022/07/22 09:52:03;;;;;;;2.45;1.00;;;32.20;39.60;;;;;;5105647;27;20189;-76
2022/07/22 09:54:32;;;;;;;3.05;0.93;;;32.20;39.70;;;;;;5103552;28;20197;-75
2022/07/22 09:57:01;;;;;;;2.10;1.23;;;32.20;39.60;;;;;;5100169;28;20200;-76
2022/07/22 09:59:31;;;;;;;5.78;1.65;;;32.30;39.80;;;;;;5103624;28;20241;-74
2022/07/22 10:02:01;;;;;;;2.17;1.20;;;32.30;39.30;;;;;;5103706;27;20200;-76
2022/07/22 10:04:35;;;;;;;1.77;0.93;;;32.30;39.10;;;;;;5111145;27;20276;-77
2022/07/22 10:07:04;;;;;;;2.00;1.13;;;32.30;39.40;;;;;;5091492;28;20194;-77
2022/07/22 10:09:35;;;;;;;4.63;1.40;;;32.40;39.60;;;;;;5103624;27;20193;-77
2022/07/22 10:12:04;;;;;;;3.63;1.23;;;32.40;39.80;;;;;;5107954;27;20186;-76
2022/07/22 10:14:35;;;;;;;5.78;1.35;;;32.40;39.70;;;;;;5098622;27;20189;-76
2022/07/22 10:17:04;;;;;;;2.28;1.20;;;32.50;39.50;;;;;;5101512;28;20182;-77
2022/07/22 10:19:37;;;;;;;5.13;1.30;;;32.60;39.10;;;;;;5087782;27;20924;-78
2022/07/22 10:22:05;;;;;;;3.67;1.17;;;32.70;39.20;;;;;;5093056;27;20218;-77
2022/07/22 10:24:34;;;;;;;5.18;1.30;;;32.70;39.20;;;;;;5103372;27;20250;-76
2022/07/22 10:27:02;;;;;;;3.72;1.20;;;32.80;39.30;;;;;;5099014;27;20208;-77
2022/07/22 10:29:33;;;;;;;2.20;1.17;;;32.90;39.40;;;;;;5106613;27;20185;-77
2022/07/22 10:32:28;;;;;;;4.65;1.15;;;33.00;39.30;;;;;;5094902;27;20282;-77
2022/07/22 10:38:07;;;;;;;3.42;1.27;;;33.00;39.30;;;;;;5066303;27;20613;-77
2022/07/22 10:40:50;;;;;;;4.18;1.35;;;33.10;38.80;;;;;;5053992;28;20741;-76
2022/07/22 10:43:20;;;;;;;3.00;1.13;;;33.20;38.90;;;;;;5056560;28;20225;-77
2022/07/22 10:45:51;;;;;;;6.20;1.20;;;33.20;38.70;;;;;;5052970;28;20225;-77
2022/07/22 10:48:22;;;;;;;4.97;1.23;;;33.30;38.90;;;;;;5058491;28;20179;-75
2022/07/22 10:51:07;;;;;;;2.83;1.27;;;33.30;38.80;;;;;;5056991;28;20195;-75
2022/07/22 10:53:52;;;;;;;3.10;1.23;;;33.30;38.70;;;;;;5053786;28;20213;-75
2022/07/22 10:56:31;;;;;;;3.35;1.25;;;33.40;38.60;;;;;;5055393;28;20213;-75
2022/07/22 10:59:09;;;;;;;3.55;1.00;;;33.50;38.90;;;;;;5057077;28;20187;-76
2022/07/22 11:01:40;;;;;;;3.53;1.00;;;33.50;38.80;;;;;;5056087;28;20183;-75
2022/07/22 11:04:10;;;;;;;2.45;1.40;;;33.50;38.80;;;;;;5058018;28;20256;-76
2022/07/22 11:06:47;;;;;;;4.55;1.30;;;33.60;38.40;;;;;;5058328;28;20194;-76
2022/07/22 11:09:18;;;;;;;5.35;1.30;;;33.60;38.40;;;;;;5054902;28;20707;-77
2022/07/22 11:11:50;;;;;;;4.35;1.50;;;33.60;38.20;;;;;;5059936;28;20193;-76
2022/07/22 11:14:26;;;;;;;3.05;1.17;;;33.60;37.90;;;;;;5054209;28;20184;-76
2022/07/22 11:16:56;;;;;;;6.22;1.20;;;33.60;37.60;;;;;;5051350;28;20304;-77
2022/07/22 11:19:27;;;;;;;2.65;1.30;;;33.70;37.60;;;;;;5054314;28;20194;-78
2022/07/22 11:22:01;;;;;;;4.82;1.20;;;33.70;37.20;;;;;;5051530;28;20217;-78
2022/07/22 11:24:33;;;;;;;1.65;1.00;;;33.80;37.30;;;;;;5058341;28;20189;-78
2022/07/22 11:27:02;;;;;;;4.35;1.23;;;33.80;37.50;;;;;;5048349;28;20198;-76
2022/07/22 11:29:35;;;;;;;3.17;1.33;;;33.80;37.60;;;;;;5053190;28;20194;-79
2022/07/22 11:32:09;;;;;;;4.63;1.63;;;33.90;37.70;;;;;;5053155;28;20195;-77
2022/07/22 11:34:42;;;;;;;2.72;1.30;;;33.90;37.70;;;;;;5051899;28;20222;-78
2022/07/22 11:37:10;;;;;;;6.00;1.80;;;34.00;37.80;;;;;;5055613;28;20257;-77
2022/07/22 11:39:40;;;;;;;3.15;1.55;;;34.00;37.50;;;;;;5054686;28;20198;-79
2022/07/22 11:42:09;;;;;;;2.97;1.42;;;34.00;37.60;;;;;;5052186;28;20202;-75
2022/07/22 11:44:39;;;;;;;4.40;1.20;;;34.00;37.40;;;;;;5064859;28;20818;-79
2022/07/22 11:47:09;;;;;;;5.97;1.27;;;34.10;37.30;;;;;;5052076;28;20222;-80
2022/07/22 11:49:39;;;;;;;5.88;1.63;;;34.10;37.00;;;;;;5032131;28;20195;-80
2022/07/22 11:52:11;;;;;;;8.20;1.40;;;34.10;37.20;;;;;;5044530;28;20286;-77
2022/07/22 11:54:43;;;;;;;5.53;1.40;;;34.10;37.20;;;;;;5047619;28;20187;-80
2022/07/22 11:57:13;;;;;;;2.28;1.23;;;34.20;37.50;;;;;;5040557;28;20605;-79
2022/07/22 11:59:41;;;;;;;4.60;1.52;;;34.20;37.10;;;;;;5038512;28;20195;-81
2022/07/22 12:02:13;;;;;;;8.32;1.55;;;34.20;36.90;;;;;;5040073;28;20211;-82
2022/07/22 12:04:44;;;;;;;4.50;1.30;;;34.30;36.90;;;;;;5042763;28;20199;-80
2022/07/22 12:07:14;;;;;;;2.50;1.35;;;34.30;37.10;;;;;;5043781;28;20189;-79
2022/07/22 12:09:44;;;;;;;3.00;1.33;;;34.30;37.10;;;;;;5035762;28;20537;-77
2022/07/22 12:12:13;;;;;;;2.67;1.40;;;34.40;37.30;;;;;;5040179;28;20683;-82
2022/07/22 12:14:47;;;;;;;2.97;1.23;;;34.40;36.80;;;;;;5041554;28;20196;-78
2022/07/22 12:17:16;;;;;;;5.85;1.55;;;34.40;36.90;;;;;;5037887;28;20261;-78
2022/07/22 12:19:45;;;;;;;3.72;1.60;;;34.50;36.70;;;;;;5035469;28;20223;-78
2022/07/22 12:22:20;;;;;;;5.25;1.60;;;34.50;36.90;;;;;;5045894;28;20195;-77
2022/07/22 12:25:00;;;;;;;3.22;1.30;;;34.50;36.90;;;;;;5029382;28;20206;-77
2022/07/22 12:27:29;;;;;;;4.32;1.23;;;34.60;37.10;;;;;;5040068;28;20229;-78
2022/07/22 12:29:57;;;;;;;5.80;1.80;;;34.50;37.10;;;;;;5034875;28;20203;-79
2022/07/22 12:32:27;;;;;;;4.25;1.38;;;34.60;37.30;;;;;;5041497;28;20202;-78
2022/07/22 12:34:58;;;;;;;6.80;1.83;;;34.70;36.90;;;;;;5039786;28;20223;-79
2022/07/22 12:37:29;;;;;;;6.18;1.48;;;34.70;36.80;;;;;;5033130;28;20683;-78
2022/07/22 12:40:03;;;;;;;3.25;1.50;;;34.80;36.60;;;;;;5037216;28;20183;-78
2022/07/22 12:42:33;;;;;;;4.90;1.40;;;34.80;36.60;;;;;;5036588;28;20246;-77
2022/07/22 12:45:05;;;;;;;2.72;1.70;;;34.80;36.40;;;;;;5045472;28;20206;-77
2022/07/22 12:47:46;;;;;;;2.53;1.30;;;34.90;36.70;;;;;;5044448;28;20187;-78
2022/07/22 12:50:33;;;;;;;7.97;1.95;;;34.90;36.60;;;;;;5034792;28;20194;-77
2022/07/22 12:53:04;;;;;;;4.07;1.25;;;34.90;36.20;;;;;;5039462;28;20198;-77
2022/07/22 12:55:51;;;;;;;4.15;2.00;;;34.80;35.70;;;;;;5040315;28;20202;-76
2022/07/22 12:58:21;;;;;;;2.33;1.40;;;34.90;35.70;;;;;;5041010;28;20218;-76
2022/07/22 13:00:52;;;;;;;2.67;1.67;;;34.90;36.30;;;;;;5033145;28;20199;-77
2022/07/22 13:03:21;;;;;;;9.15;1.73;;;34.90;36.10;;;;;;5043561;28;20661;-76